Terminal Aerodrome Forecast
Issued by NWS Kansas City/Pleasant Hill, MO

Home | Current Version | Previous Version | Text Only | Print | Product List | Glossary On
Versions: 1 2 3 4 5 6 7 8 9 10 11 12 13
000
FTUS43 KEAX 010500
TAFMCI
TAF
KMCI 010528Z 0106/0206 15010KT 3SM -RASN BR OVC005
      TEMPO 0106/0108 1 1/2SM -SN BR OVC004
     FM011200 33014KT 3SM -SN OVC006
     FM011800 34021G30KT 4SM -SN OVC020
     FM020200 34015KT P6SM BKN035=

USA.gov is the U.S. government's official web portal to all federal, state and local government web resources and services.